createdAt,value
2023-03-21T00:01:54.462Z,101320.64
2023-03-21T00:04:26.529Z,101317.44
2023-03-21T00:06:54.501Z,101318.95
2023-03-21T00:09:21.814Z,101320.04
2023-03-21T00:11:48.516Z,101315.57
2023-03-21T00:14:18.992Z,101316.05
2023-03-21T00:16:50.741Z,101312.01
2023-03-21T00:19:20.950Z,101305.45
2023-03-21T00:22:05.449Z,101303.77
2023-03-21T00:24:32.949Z,101300.04
2023-03-21T00:27:15.871Z,101297.29
2023-03-21T00:29:50.993Z,101294.15
2023-03-21T00:32:22.299Z,101290.95
2023-03-21T00:35:40.759Z,101293.67
2023-03-21T00:37:37.317Z,101285.73
2023-03-21T00:40:23.030Z,101281.58
2023-03-21T00:42:52.637Z,101279.27
2023-03-21T00:45:19.481Z,101274.03
2023-03-21T00:47:46.220Z,101272.64
2023-03-21T00:50:13.135Z,101265.88
2023-03-21T00:52:41.314Z,101260.59
2023-03-21T00:55:14.681Z,101258.93
2023-03-21T00:57:43.594Z,101260.55
2023-03-21T01:00:12.902Z,101258.16
2023-03-21T01:03:14.217Z,101258.01
2023-03-21T01:06:04.892Z,101253.20
2023-03-21T01:08:52.377Z,101251.92
2023-03-21T01:11:23.330Z,101247.80
2023-03-21T01:13:56.249Z,101244.42
2023-03-21T01:16:28.870Z,101247.55
2023-03-21T01:18:56.367Z,101246.02
2023-03-21T01:21:23.294Z,101245.89
2023-03-21T01:23:49.916Z,101238.73
2023-03-21T01:26:16.933Z,101240.27
2023-03-21T01:28:45.510Z,101237.16
2023-03-21T01:31:16.154Z,101232.50
2023-03-21T01:33:43.736Z,101230.50
2023-03-21T01:36:25.128Z,101227.89
2023-03-21T01:38:57.141Z,101230.01
2023-03-21T01:41:41.627Z,101226.02
2023-03-21T01:44:18.681Z,101223.09
2023-03-21T01:49:50.282Z,101216.45
2023-03-21T01:52:37.108Z,101216.99
2023-03-21T01:55:12.520Z,101218.00
2023-03-21T01:58:09.527Z,101215.60
2023-03-21T02:01:00.197Z,101214.61
2023-03-21T02:03:50.545Z,101212.61
2023-03-21T02:06:40.863Z,101206.61
2023-03-21T02:09:22.659Z,101203.34
2023-03-21T02:11:49.638Z,101200.81
2023-03-21T02:14:28.278Z,101194.30
2023-03-21T02:17:10.390Z,101193.92
2023-03-21T02:20:29.970Z,101192.10
2023-03-21T02:23:25.738Z,101187.86
2023-03-21T02:26:10.569Z,101185.94
2023-03-21T02:28:48.110Z,101181.67
2023-03-21T02:31:26.779Z,101178.92
2023-03-21T02:34:24.513Z,101179.88
2023-03-21T02:37:03.401Z,101180.29
2023-03-21T02:39:40.715Z,101180.21
2023-03-21T02:42:22.409Z,101178.36
2023-03-21T02:44:57.329Z,101181.22
2023-03-21T02:47:36.196Z,101183.32
2023-03-21T02:50:15.957Z,101184.63
2023-03-21T02:52:47.896Z,101182.11
2023-03-21T02:55:20.358Z,101179.08
2023-03-21T02:57:56.387Z,101172.27
2023-03-21T03:00:29.734Z,101168.56
2023-03-21T03:03:08.772Z,101168.06
2023-03-21T03:05:44.045Z,101166.21
2023-03-21T03:08:36.132Z,101164.02
2023-03-21T03:11:18.845Z,101167.77
2023-03-21T03:14:31.530Z,101163.86
2023-03-21T03:17:02.813Z,101158.48
2023-03-21T03:19:36.579Z,101162.98
2023-03-21T03:22:27.921Z,101163.89
2023-03-21T03:25:18.676Z,101159.48
2023-03-21T03:27:55.003Z,101157.20
2023-03-21T03:30:29.633Z,101156.54
2023-03-21T03:33:03.314Z,101157.59
2023-03-21T03:35:30.526Z,101157.20
2023-03-21T03:38:02.816Z,101161.08
2023-03-21T03:40:49.798Z,101157.50
2023-03-21T03:43:51.048Z,101159.73
2023-03-21T03:46:19.968Z,101164.35
2023-03-21T03:48:56.067Z,101166.05
2023-03-21T03:51:36.366Z,101166.61
2023-03-21T03:54:30.832Z,101169.63
2023-03-21T03:57:01.606Z,101173.02
2023-03-21T03:59:28.477Z,101174.30
2023-03-21T04:02:11.021Z,101174.09
2023-03-21T04:04:38.426Z,101176.14
2023-03-21T04:07:06.515Z,101176.63
2023-03-21T04:09:43.618Z,101172.21
2023-03-21T04:12:13.654Z,101172.03
2023-03-21T04:14:45.802Z,101170.26
2023-03-21T04:17:15.973Z,101173.44
2023-03-21T04:19:42.856Z,101173.05
2023-03-21T04:22:09.532Z,101168.52
2023-03-21T04:24:40.037Z,101164.02
2023-03-21T04:27:06.784Z,101162.71
2023-03-21T04:29:42.589Z,101157.50
2023-03-21T04:32:25.733Z,101160.60
2023-03-21T04:35:01.166Z,101157.83
2023-03-21T04:37:28.123Z,101157.95
2023-03-21T04:39:55.212Z,101153.29
2023-03-21T04:42:22.353Z,101158.52
2023-03-21T04:44:49.578Z,101160.29
2023-03-21T04:47:17.205Z,101159.85
2023-03-21T04:49:43.865Z,101158.96
2023-03-21T04:52:11.767Z,101160.13
2023-03-21T04:54:38.974Z,101160.54
2023-03-21T04:57:05.920Z,101164.34
2023-03-21T04:59:32.601Z,101162.24
2023-03-21T05:01:59.293Z,101159.77
2023-03-21T05:04:27.429Z,101157.42
2023-03-21T05:06:56.357Z,101154.96
2023-03-21T05:09:23.300Z,101153.05
2023-03-21T05:11:50.963Z,101156.38
2023-03-21T05:14:22.233Z,101158.99
2023-03-21T05:16:53.605Z,101156.47
2023-03-21T05:19:34.877Z,101155.00
2023-03-21T05:22:08.183Z,101157.98
2023-03-21T05:24:39.269Z,101159.14
2023-03-21T05:27:06.819Z,101161.40
2023-03-21T05:29:39.560Z,101163.52
2023-03-21T05:32:07.308Z,101163.14
2023-03-21T05:34:34.015Z,101160.81
2023-03-21T05:37:01.433Z,101159.08
2023-03-21T05:39:38.422Z,101167.63
2023-03-21T05:42:10.500Z,101168.09
2023-03-21T05:44:40.358Z,101170.23
2023-03-21T05:47:08.414Z,101171.86
2023-03-21T05:49:39.538Z,101168.09
2023-03-21T05:52:06.534Z,101163.23
2023-03-21T05:54:33.397Z,101163.30
2023-03-21T05:57:00.921Z,101163.48
2023-03-21T05:59:47.842Z,101163.71
2023-03-21T06:02:14.963Z,101162.81
2023-03-21T06:04:41.760Z,101163.14
2023-03-21T06:07:08.533Z,101164.84
2023-03-21T06:09:38.291Z,101165.59
2023-03-21T06:12:05.046Z,101167.39
2023-03-21T06:14:38.982Z,101164.50
2023-03-21T06:17:25.903Z,101165.99
2023-03-21T06:19:56.295Z,101168.79
2023-03-21T06:22:29.738Z,101174.42
2023-03-21T06:24:56.583Z,101178.77
2023-03-21T06:27:23.350Z,101182.11
2023-03-21T06:29:53.127Z,101183.98
2023-03-21T06:32:20.342Z,101190.59
2023-03-21T06:34:48.652Z,101193.61
2023-03-21T06:37:15.390Z,101195.02
2023-03-21T06:39:42.575Z,101192.26
2023-03-21T06:42:09.377Z,101195.55
2023-03-21T06:44:36.985Z,101198.44
2023-03-21T06:47:06.829Z,101196.40
2023-03-21T06:49:34.561Z,101192.55
2023-03-21T06:52:06.836Z,101189.81
2023-03-21T06:54:33.955Z,101187.33
2023-03-21T06:57:05.667Z,101187.99
2023-03-21T06:59:37.313Z,101188.96
2023-03-21T07:02:07.519Z,101186.82
2023-03-21T07:04:38.856Z,101187.69
2023-03-21T07:07:06.601Z,101188.40
2023-03-21T07:09:33.336Z,101186.73
2023-03-21T07:12:03.800Z,101183.38
2023-03-21T07:14:42.005Z,101189.06
2023-03-21T07:17:08.665Z,101191.30
2023-03-21T07:19:35.642Z,101191.41
2023-03-21T07:22:02.343Z,101195.90
2023-03-21T07:24:29.038Z,101193.83
2023-03-21T07:26:56.407Z,101192.95
2023-03-21T07:29:23.503Z,101195.17
2023-03-21T07:31:50.508Z,101191.09
2023-03-21T07:34:17.929Z,101192.59
2023-03-21T07:36:45.284Z,101193.77
2023-03-21T07:39:12.805Z,101196.70
2023-03-21T07:41:39.470Z,101196.31
2023-03-21T07:44:23.536Z,101194.41
2023-03-21T07:47:00.406Z,101194.80
2023-03-21T07:49:27.504Z,101195.17
2023-03-21T07:51:54.354Z,101198.83
2023-03-21T07:54:22.976Z,101201.36
2023-03-21T07:56:49.957Z,101203.04
2023-03-21T07:59:16.592Z,101201.32
2023-03-21T08:01:43.373Z,101203.27
2023-03-21T08:04:10.123Z,101204.89
2023-03-21T08:06:36.823Z,101202.52
2023-03-21T08:09:04.115Z,101206.03
2023-03-21T08:11:34.323Z,101206.86
2023-03-21T08:14:01.793Z,101209.80
2023-03-21T08:16:28.583Z,101210.30
2023-03-21T08:18:55.228Z,101208.56
2023-03-21T08:21:21.869Z,101208.45
2023-03-21T08:23:48.510Z,101207.73
2023-03-21T08:26:18.449Z,101210.63
2023-03-21T08:28:46.344Z,101211.94
2023-03-21T08:31:15.043Z,101210.72
2023-03-21T08:33:41.749Z,101212.92
2023-03-21T08:36:09.149Z,101216.45
2023-03-21T08:38:36.319Z,101216.83
2023-03-21T08:41:03.559Z,101219.80
2023-03-21T08:43:30.654Z,101219.29
2023-03-21T08:45:57.375Z,101225.23
2023-03-21T08:48:25.436Z,101221.77
2023-03-21T08:50:52.173Z,101219.23
2023-03-21T08:53:18.945Z,101218.45
2023-03-21T08:55:45.873Z,101214.19
2023-03-21T08:58:12.541Z,101214.23
2023-03-21T09:00:39.271Z,101214.18
2023-03-21T09:03:05.870Z,101215.16
2023-03-21T09:05:33.060Z,101216.97
2023-03-21T09:08:01.710Z,101218.99
2023-03-21T09:10:28.401Z,101217.39
2023-03-21T09:12:56.270Z,101213.45
2023-03-21T09:15:29.921Z,101209.20
2023-03-21T09:17:58.916Z,101208.52
2023-03-21T09:20:31.384Z,101202.19
2023-03-21T09:22:59.898Z,101208.62
2023-03-21T09:25:31.707Z,101212.44
2023-03-21T09:28:04.787Z,101214.17
2023-03-21T09:30:33.764Z,101213.66
2023-03-21T09:33:02.180Z,101215.44
2023-03-21T09:35:29.742Z,101211.77
2023-03-21T09:37:59.048Z,101213.99
2023-03-21T09:40:41.090Z,101205.65
2023-03-21T09:43:18.054Z,101209.46
2023-03-21T09:45:59.857Z,101209.34
2023-03-21T09:48:57.048Z,101210.90
2023-03-21T09:51:31.347Z,101207.16
2023-03-21T09:54:07.522Z,101207.25
2023-03-21T09:56:37.848Z,101206.42
2023-03-21T09:59:07.405Z,101198.30
2023-03-21T10:01:41.834Z,101197.95
2023-03-21T10:04:12.937Z,101195.61
2023-03-21T10:06:42.884Z,101193.86
2023-03-21T10:09:12.649Z,101193.89
2023-03-21T10:11:53.292Z,101191.20
2023-03-21T10:14:31.610Z,101190.73
2023-03-21T10:17:04.248Z,101186.99
2023-03-21T10:19:30.988Z,101186.19
2023-03-21T10:22:03.010Z,101188.09
2023-03-21T10:24:33.321Z,101184.31
2023-03-21T10:27:02.673Z,101179.41
2023-03-21T10:29:37.230Z,101181.66
2023-03-21T10:32:04.340Z,101180.41
2023-03-21T10:34:41.781Z,101180.13
2023-03-21T10:37:08.806Z,101178.02
2023-03-21T10:39:44.240Z,101171.55
2023-03-21T10:42:32.962Z,101174.92
2023-03-21T10:44:59.702Z,101172.23
2023-03-21T10:47:27.736Z,101163.98
2023-03-21T10:50:07.207Z,101162.35
2023-03-21T10:52:36.719Z,101162.84
2023-03-21T10:55:18.751Z,101161.82
2023-03-21T10:57:47.932Z,101159.02
2023-03-21T11:00:23.106Z,101166.84
2023-03-21T11:02:53.139Z,101166.85
2023-03-21T11:05:40.375Z,101171.09
2023-03-21T11:08:13.966Z,101168.09
2023-03-21T11:11:06.453Z,101165.91
2023-03-21T11:13:38.067Z,101163.62
2023-03-21T11:16:11.103Z,101161.91
2023-03-21T11:18:44.317Z,101162.63
2023-03-21T11:21:13.566Z,101159.23
2023-03-21T11:23:48.247Z,101153.53
2023-03-21T11:26:36.861Z,101151.72
2023-03-21T11:29:16.924Z,101145.60
2023-03-21T11:31:44.942Z,101138.30
2023-03-21T11:34:27.118Z,101135.02
2023-03-21T11:36:59.039Z,101130.38
2023-03-21T11:39:29.212Z,101127.63
2023-03-21T11:41:56.212Z,101121.14
2023-03-21T11:44:29.728Z,101112.01
2023-03-21T11:46:56.859Z,101108.77
2023-03-21T11:49:24.623Z,101104.74
2023-03-21T11:52:13.510Z,101101.16
2023-03-21T11:54:49.388Z,101096.73
2023-03-21T11:57:45.604Z,101090.90
2023-03-21T12:00:22.815Z,101084.58
2023-03-21T12:02:57.252Z,101081.47
2023-03-21T12:05:27.670Z,101073.92
2023-03-21T12:08:12.837Z,101071.58
2023-03-21T12:10:55.257Z,101070.70
2023-03-21T12:13:40.981Z,101070.36
2023-03-21T12:16:26.298Z,101066.81
2023-03-21T12:19:49.027Z,101065.72
2023-03-21T12:22:34.219Z,101064.50
2023-03-21T12:25:12.272Z,101066.04
2023-03-21T12:27:44.798Z,101058.25
2023-03-21T12:30:34.845Z,101049.37
2023-03-21T12:33:26.201Z,101043.87
2023-03-21T12:36:30.385Z,101040.10
2023-03-21T12:39:16.396Z,101043.06
2023-03-21T12:42:03.011Z,101032.13
2023-03-21T12:44:34.238Z,101027.41
2023-03-21T12:47:06.978Z,101021.53
2023-03-21T12:49:48.517Z,101017.69
2023-03-21T12:52:27.039Z,101013.38
2023-03-21T12:55:01.898Z,101011.81
2023-03-21T12:57:47.812Z,101006.27
2023-03-21T13:00:26.148Z,101009.50
2023-03-21T13:03:04.301Z,101005.95
2023-03-21T13:05:38.958Z,101001.10
2023-03-21T13:08:15.767Z,100999.55
2023-03-21T13:10:45.381Z,100998.19
2023-03-21T13:13:34.077Z,100996.23
2023-03-21T13:16:12.669Z,100994.05
2023-03-21T13:18:55.777Z,100988.77
2023-03-21T13:21:46.894Z,100983.98
2023-03-21T13:24:28.142Z,100983.74
2023-03-21T13:27:16.513Z,100980.70
2023-03-21T13:29:50.579Z,100973.92
2023-03-21T13:32:29.857Z,100972.56
2023-03-21T13:35:01.483Z,100970.29
2023-03-21T13:37:39.050Z,100969.45
2023-03-21T13:40:20.251Z,100966.47
2023-03-21T13:42:53.726Z,100956.16
2023-03-21T13:45:45.084Z,100954.54
2023-03-21T13:48:29.784Z,100952.12
2023-03-21T13:51:02.274Z,100948.55
2023-03-21T13:54:03.597Z,100946.57
2023-03-21T13:56:48.026Z,100944.48
2023-03-21T13:59:38.410Z,100938.94
2023-03-21T14:02:23.536Z,100927.48
2023-03-21T14:05:05.384Z,100924.82
2023-03-21T14:07:41.601Z,100917.13
2023-03-21T14:10:19.449Z,100921.70
2023-03-21T14:12:47.547Z,100917.36
2023-03-21T14:15:20.781Z,100912.80
2023-03-21T14:18:06.471Z,100909.67
2023-03-21T14:20:43.819Z,100909.06
2023-03-21T14:23:17.458Z,100905.85
2023-03-21T14:25:47.813Z,100902.86
2023-03-21T14:28:17.559Z,100897.92
2023-03-21T14:30:44.934Z,100896.14
2023-03-21T14:33:36.714Z,100893.31
2023-03-21T14:36:09.010Z,100892.61
2023-03-21T14:38:38.654Z,100888.55
2023-03-21T14:41:19.942Z,100884.54
2023-03-21T14:44:01.604Z,100882.48
2023-03-21T14:46:28.325Z,100875.61
2023-03-21T14:48:55.070Z,100871.56
2023-03-21T14:51:23.768Z,100868.36
2023-03-21T14:53:50.487Z,100868.40
2023-03-21T14:56:23.722Z,100870.16
2023-03-21T14:58:52.198Z,100873.36
2023-03-21T15:01:31.181Z,100872.95
2023-03-21T15:04:00.760Z,100870.15
2023-03-21T15:06:27.565Z,100869.86
2023-03-21T15:09:00.864Z,100871.65
2023-03-21T15:11:35.186Z,100866.01
2023-03-21T15:14:06.022Z,100864.15
2023-03-21T15:16:33.763Z,100864.63
2023-03-21T15:19:05.338Z,100865.73
2023-03-21T15:21:35.136Z,100864.34
2023-03-21T15:24:25.333Z,100867.27
2023-03-21T15:26:57.199Z,100869.39
2023-03-21T15:29:25.028Z,100872.25
2023-03-21T15:31:51.743Z,100871.02
2023-03-21T15:34:26.404Z,100873.27
2023-03-21T15:37:05.632Z,100867.45
2023-03-21T15:39:35.462Z,100867.09
2023-03-21T15:42:04.179Z,100865.32
2023-03-21T15:44:32.528Z,100859.58
2023-03-21T15:46:59.454Z,100862.64
2023-03-21T15:49:34.462Z,100855.92
2023-03-21T15:52:11.400Z,100860.56
2023-03-21T15:54:56.975Z,100863.14
2023-03-21T15:57:32.826Z,100860.39
2023-03-21T16:00:12.108Z,100859.20
2023-03-21T16:02:42.488Z,100855.77
2023-03-21T16:05:29.354Z,100858.46
2023-03-21T16:08:23.120Z,100854.38
2023-03-21T16:10:49.818Z,100857.02
2023-03-21T16:13:17.523Z,100857.82
2023-03-21T16:15:45.398Z,100856.98
2023-03-21T16:18:15.927Z,100860.63
2023-03-21T16:20:45.270Z,100862.11
2023-03-21T16:23:13.422Z,100863.98
2023-03-21T16:25:42.091Z,100860.10
2023-03-21T16:28:16.517Z,100857.63
2023-03-21T16:30:44.292Z,100858.04
2023-03-21T16:33:12.494Z,100857.60
2023-03-21T16:35:39.918Z,100858.27
2023-03-21T16:38:06.915Z,100855.17
2023-03-21T16:40:38.947Z,100859.67
2023-03-21T16:43:05.722Z,100858.59
2023-03-21T16:45:32.837Z,100859.88
2023-03-21T16:48:00.756Z,100860.72
2023-03-21T16:50:37.949Z,100862.56
2023-03-21T16:53:04.728Z,100863.19
2023-03-21T16:55:34.879Z,100858.86
2023-03-21T16:58:01.777Z,100864.91
2023-03-21T17:00:30.860Z,100862.42
2023-03-21T17:03:04.519Z,100866.36
2023-03-21T17:05:31.232Z,100865.81
2023-03-21T17:08:04.261Z,100864.48
2023-03-21T17:10:32.834Z,100865.09
2023-03-21T17:12:59.948Z,100871.12
2023-03-21T17:15:27.165Z,100875.25
2023-03-21T17:17:57.945Z,100877.02
2023-03-21T17:20:29.227Z,100878.56
2023-03-21T17:22:55.978Z,100878.22
2023-03-21T17:25:22.852Z,100878.31
2023-03-21T17:27:51.728Z,100876.86
2023-03-21T17:30:33.791Z,100877.52
2023-03-21T17:33:01.152Z,100875.57
2023-03-21T17:35:29.075Z,100875.88
2023-03-21T17:37:58.659Z,100879.58
2023-03-21T17:40:31.166Z,100880.06
2023-03-21T17:42:58.472Z,100880.42
2023-03-21T17:45:25.644Z,100879.73
2023-03-21T17:47:53.287Z,100876.83
2023-03-21T17:50:22.697Z,100873.19
2023-03-21T17:52:50.881Z,100873.48
2023-03-21T17:55:21.942Z,100872.77
2023-03-21T17:57:49.603Z,100875.61
2023-03-21T18:00:23.957Z,100878.89
2023-03-21T18:02:51.883Z,100878.97
2023-03-21T18:05:21.323Z,100882.53
2023-03-21T18:10:37.152Z,100883.55
2023-03-21T18:13:04.036Z,100883.18
2023-03-21T18:15:31.183Z,100888.20
2023-03-21T18:17:58.740Z,100888.23
2023-03-21T18:20:49.981Z,100891.44
2023-03-21T18:23:16.062Z,100893.38
2023-03-21T18:25:43.102Z,100896.96
2023-03-21T18:28:12.159Z,100899.14
2023-03-21T18:31:05.300Z,100903.38
2023-03-21T18:33:27.643Z,100899.08
2023-03-21T18:35:58.956Z,100900.20
2023-03-21T18:38:29.185Z,100895.06
2023-03-21T18:40:56.818Z,100894.98
2023-03-21T18:46:10.974Z,100895.77
2023-03-21T18:48:39.397Z,100897.16
2023-03-21T18:51:16.195Z,100899.86
2023-03-21T18:53:43.154Z,100900.53
2023-03-21T18:56:10.666Z,100906.50
2023-03-21T18:58:39.132Z,100908.48
2023-03-21T19:01:08.387Z,100906.95
2023-03-21T19:03:37.477Z,100909.71
2023-03-21T19:06:06.578Z,100910.57
2023-03-21T19:08:42.222Z,100911.97
2023-03-21T19:11:10.261Z,100915.54
2023-03-21T19:13:36.879Z,100919.71
2023-03-21T19:16:03.840Z,100922.56
2023-03-21T19:21:19.225Z,100927.91
2023-03-21T19:26:33.727Z,100934.50
2023-03-21T19:29:04.569Z,100937.70
2023-03-21T19:31:45.425Z,100936.55
2023-03-21T19:34:17.132Z,100939.99
2023-03-21T19:36:46.023Z,100939.52
2023-03-21T19:39:24.537Z,100938.55
2023-03-21T19:41:55.267Z,100939.91
2023-03-21T19:44:28.321Z,100938.17
2023-03-21T19:46:54.941Z,100938.73
2023-03-21T19:49:34.580Z,100937.27
2023-03-21T19:52:10.456Z,100941.53
2023-03-21T19:54:37.654Z,100940.26
2023-03-21T19:57:04.592Z,100939.89
2023-03-21T19:59:32.210Z,100942.34
2023-03-21T20:02:17.999Z,100942.86
2023-03-21T20:04:46.336Z,100941.52
2023-03-21T20:07:13.309Z,100944.34
2023-03-21T20:09:52.353Z,100943.35
2023-03-21T20:12:20.213Z,100942.71
2023-03-21T20:14:49.104Z,100944.62
2023-03-21T20:17:16.618Z,100945.53
2023-03-21T20:19:43.454Z,100948.10
2023-03-21T20:22:21.772Z,100948.21
2023-03-21T20:24:53.793Z,100950.81
2023-03-21T20:27:25.146Z,100954.34
2023-03-21T20:30:10.141Z,100951.27
2023-03-21T20:32:38.566Z,100955.38
2023-03-21T20:35:18.812Z,100955.48
2023-03-21T20:37:49.879Z,100961.33
2023-03-21T20:40:18.698Z,100959.29
2023-03-21T20:42:48.555Z,100959.31
2023-03-21T20:45:17.240Z,100959.22
2023-03-21T20:47:44.413Z,100962.09
2023-03-21T20:50:14.243Z,100963.11
2023-03-21T20:53:04.823Z,100966.48
2023-03-21T20:55:30.873Z,100974.50
2023-03-21T20:58:01.934Z,100978.92
2023-03-21T21:00:29.836Z,100980.33
2023-03-21T21:02:57.916Z,100982.99
2023-03-21T21:05:30.744Z,100983.14
2023-03-21T21:08:01.750Z,100986.34
2023-03-21T21:10:28.822Z,100984.67
2023-03-21T21:12:55.655Z,100987.81
2023-03-21T21:15:22.480Z,100987.36
2023-03-21T21:18:07.069Z,100987.63
2023-03-21T21:20:35.395Z,100985.96
2023-03-21T21:23:02.183Z,100985.04
2023-03-21T21:25:32.443Z,100986.19
2023-03-21T21:28:01.765Z,100986.32
2023-03-21T21:30:29.599Z,100986.55
2023-03-21T21:32:59.589Z,100990.13
2023-03-21T21:35:26.950Z,100994.91
2023-03-21T21:37:53.667Z,100990.02
2023-03-21T21:40:23.454Z,100991.89
2023-03-21T21:42:50.337Z,100993.56
2023-03-21T21:45:19.343Z,100999.27
2023-03-21T21:47:46.720Z,101002.93
2023-03-21T21:50:13.769Z,100997.55
2023-03-21T21:52:43.856Z,100997.69
2023-03-21T21:55:11.061Z,100998.27
2023-03-21T21:57:39.832Z,100997.31
2023-03-21T22:00:12.961Z,100996.58
2023-03-21T22:02:41.692Z,100997.14
2023-03-21T22:05:09.428Z,100998.52
2023-03-21T22:07:37.768Z,100999.58
2023-03-21T22:10:05.411Z,101001.57
2023-03-21T22:12:32.525Z,101001.17
2023-03-21T22:14:59.278Z,100999.86
2023-03-21T22:17:26.390Z,100997.77
2023-03-21T22:20:05.088Z,100998.48
2023-03-21T22:22:34.263Z,100997.88
2023-03-21T22:25:01.130Z,100997.27
2023-03-21T22:27:27.899Z,100997.83
2023-03-21T22:29:54.837Z,100997.29
2023-03-21T22:32:21.611Z,100994.94
2023-03-21T22:34:48.398Z,100996.60
2023-03-21T22:37:15.562Z,100997.66
2023-03-21T22:39:42.472Z,100997.45
2023-03-21T22:42:09.138Z,101000.04
2023-03-21T22:44:36.108Z,101001.83
2023-03-21T22:47:05.412Z,101005.52
2023-03-21T22:49:32.919Z,101003.83
2023-03-21T22:52:01.290Z,101004.27
2023-03-21T22:54:28.059Z,101001.96
2023-03-21T22:56:55.526Z,101002.27
2023-03-21T22:59:22.809Z,101001.38
2023-03-21T23:01:49.685Z,100999.60
2023-03-21T23:04:16.994Z,100999.55
2023-03-21T23:06:44.315Z,100995.88
2023-03-21T23:09:11.236Z,100995.48
2023-03-21T23:11:39.056Z,100992.70
2023-03-21T23:14:08.449Z,100993.65
2023-03-21T23:16:38.490Z,100990.48
2023-03-21T23:19:06.246Z,100989.77
2023-03-21T23:21:36.663Z,100987.95
2023-03-21T23:24:04.397Z,100988.33
2023-03-21T23:26:31.228Z,100987.02
2023-03-21T23:28:57.880Z,100988.19
2023-03-21T23:31:27.150Z,100989.67
2023-03-21T23:33:55.084Z,100988.73
2023-03-21T23:36:22.651Z,100984.89
2023-03-21T23:38:50.435Z,100981.65
2023-03-21T23:41:20.049Z,100978.89
2023-03-21T23:43:48.017Z,100979.79
2023-03-21T23:46:16.322Z,100979.73
2023-03-21T23:48:45.108Z,100979.78
2023-03-21T23:51:14.545Z,100980.67
2023-03-21T23:53:41.317Z,100979.39
2023-03-21T23:56:17.172Z,100978.81
2023-03-21T23:58:43.983Z,100978.05
